Time;durP1;ratioP1;P1;durP2;ratioP2;P2;SDS_P1;SDS_P2;PMS_P1;PMS_P2;Temp;Humidity;BMP_temperature;BMP_pressure;BME280_temperature;BME280_humidity;BME280_pressure;Samples;Min_cycle;Max_cycle;Signal;HPM_P1;HPM_P2
2021/11/15 00:02:16;;;;;;;148.10;85.20;;;230.90;1792.00;;;;;;4900612;29;20051;-58
2021/11/15 00:04:42;;;;;;;166.40;91.72;;;230.90;1792.00;;;;;;4900546;29;20119;-58
2021/11/15 00:07:08;;;;;;;158.35;93.60;;;230.80;1792.00;;;;;;4900842;29;20025;-57
2021/11/15 00:09:33;;;;;;;169.32;93.95;;;230.80;1817.60;;;;;;4883101;29;20033;-58
2021/11/15 00:12:00;;;;;;;171.85;94.95;;;230.80;1817.60;;;;;;4900491;29;20080;-57
2021/11/15 00:14:26;;;;;;;165.40;93.70;;;230.70;1817.60;;;;;;4900489;29;20368;-57
2021/11/15 00:16:52;;;;;;;163.95;92.32;;;230.80;1817.60;;;;;;4900762;29;20040;-57
2021/11/15 00:19:18;;;;;;;166.68;95.50;;;230.90;1817.60;;;;;;4900428;29;20036;-57
2021/11/15 00:21:45;;;;;;;171.88;95.05;;;230.80;1792.00;;;;;;4900002;29;20108;-57
2021/11/15 00:24:11;;;;;;;170.65;93.47;;;230.80;1817.60;;;;;;4900467;29;20028;-58
2021/11/15 00:26:37;;;;;;;161.50;91.90;;;230.80;1792.00;;;;;;4900623;29;20025;-58
2021/11/15 00:29:04;;;;;;;175.70;92.43;;;230.80;1792.00;;;;;;4900293;29;20380;-58
2021/11/15 00:31:30;;;;;;;177.45;91.30;;;230.80;1817.60;;;;;;4900358;29;20060;-58
2021/11/15 00:33:56;;;;;;;168.68;88.50;;;230.70;1817.60;;;;;;4882809;29;20067;-57
2021/11/15 00:36:23;;;;;;;160.63;88.57;;;230.60;1843.20;;;;;;4900252;29;20420;-57
2021/11/15 00:38:49;;;;;;;147.80;82.15;;;230.70;1843.20;;;;;;4900075;29;20052;-58
2021/11/15 00:41:14;;;;;;;141.63;82.13;;;230.60;1843.20;;;;;;4900217;29;20436;-58
2021/11/15 00:43:41;;;;;;;140.13;80.35;;;230.60;1868.80;;;;;;4900069;29;20039;-57
2021/11/15 00:46:07;;;;;;;133.77;80.63;;;230.60;1868.80;;;;;;4899012;29;20479;-58
2021/11/15 00:48:32;;;;;;;140.45;80.65;;;230.70;1843.20;;;;;;4899799;29;20036;-58
2021/11/15 00:50:58;;;;;;;130.93;76.95;;;230.60;1894.40;;;;;;4900085;29;20522;-58
2021/11/15 00:53:24;;;;;;;127.72;73.93;;;230.70;1868.80;;;;;;4899528;29;20428;-58
2021/11/15 00:55:50;;;;;;;120.57;71.88;;;230.60;1868.80;;;;;;4899798;29;20371;-58
2021/11/15 00:58:16;;;;;;;121.75;72.65;;;230.60;1894.40;;;;;;4899537;29;20047;-58
2021/11/15 01:00:43;;;;;;;123.28;75.03;;;230.60;1894.40;;;;;;4882767;29;20024;-58
2021/11/15 01:03:13;;;;;;;116.55;68.35;;;230.50;1868.80;;;;;;4899818;29;20116;-57
2021/11/15 01:05:47;;;;;;;111.05;68.65;;;230.60;1894.40;;;;;;4899875;29;20117;-58
2021/11/15 01:08:14;;;;;;;;;;;230.60;1868.80;;;;;;4900166;29;20386;-58
2021/11/15 01:10:40;;;;;;;111.57;64.78;;;230.60;1894.40;;;;;;4899610;29;19959;-58
2021/11/15 01:13:06;;;;;;;109.90;65.45;;;230.60;1894.40;;;;;;4899594;29;20420;-58
2021/11/15 01:15:34;;;;;;;119.15;69.32;;;230.60;1868.80;;;;;;4898923;29;20071;-58
2021/11/15 01:18:00;;;;;;;110.00;66.15;;;230.60;1894.40;;;;;;4899584;29;20072;-58
2021/11/15 01:20:30;;;;;;;94.53;57.22;;;230.60;1894.40;;;;;;4899603;29;20036;-58
2021/11/15 01:22:57;;;;;;;86.72;55.80;;;230.60;1894.40;;;;;;4899634;29;20056;-58
2021/11/15 01:25:23;;;;;;;88.25;54.63;;;230.60;1894.40;;;;;;4899401;29;20029;-58
2021/11/15 01:27:48;;;;;;;81.93;52.28;;;230.60;1894.40;;;;;;4882437;29;20380;-58
2021/11/15 01:30:16;;;;;;;90.80;53.08;;;230.60;1920.00;;;;;;4899253;29;20033;-58
2021/11/15 01:32:43;;;;;;;93.68;56.25;;;230.60;1894.40;;;;;;4899224;29;20047;-57
2021/11/15 01:35:10;;;;;;;90.75;55.58;;;230.60;1894.40;;;;;;4899149;29;20035;-57
2021/11/15 01:37:37;;;;;;;83.90;53.30;;;230.60;1894.40;;;;;;4899266;29;20025;-58
2021/11/15 01:40:05;;;;;;;85.03;53.40;;;230.50;1868.80;;;;;;4898971;29;20035;-58
2021/11/15 01:42:31;;;;;;;87.57;52.97;;;230.50;1894.40;;;;;;4899018;29;20044;-58
2021/11/15 01:44:56;;;;;;;84.95;54.55;;;230.60;1894.40;;;;;;4898997;29;20021;-57
2021/11/15 01:47:23;;;;;;;85.38;52.90;;;230.50;1894.40;;;;;;4898921;29;20041;-58
2021/11/15 01:49:49;;;;;;;85.57;54.97;;;230.60;1894.40;;;;;;4898934;29;20020;-58
2021/11/15 01:52:15;;;;;;;85.53;52.92;;;230.60;1868.80;;;;;;4899045;29;20076;-58
2021/11/15 01:54:41;;;;;;;94.43;57.55;;;230.50;1894.40;;;;;;4898820;29;20490;-58
2021/11/15 01:57:07;;;;;;;98.45;59.53;;;230.50;1894.40;;;;;;4898692;29;20029;-57
2021/11/15 01:59:33;;;;;;;90.68;59.05;;;230.50;1868.80;;;;;;4898593;29;20020;-57
2021/11/15 02:01:58;;;;;;;98.32;60.88;;;230.50;1894.40;;;;;;4898572;29;20037;-57
2021/11/15 02:04:24;;;;;;;95.63;60.20;;;230.50;1894.40;;;;;;4881851;29;20033;-58
2021/11/15 02:06:50;;;;;;;105.22;61.47;;;230.40;1894.40;;;;;;4898766;29;20096;-57
2021/11/15 02:09:16;;;;;;;101.30;60.28;;;230.50;1920.00;;;;;;4898747;29;20032;-57
2021/11/15 02:11:41;;;;;;;93.60;57.90;;;230.50;1868.80;;;;;;4898694;29;20040;-57
2021/11/15 02:14:07;;;;;;;90.35;56.85;;;230.40;1894.40;;;;;;4898733;29;20383;-58
2021/11/15 02:16:34;;;;;;;87.25;56.38;;;230.40;1894.40;;;;;;4898397;29;20479;-58
2021/11/15 02:18:59;;;;;;;85.28;56.42;;;230.40;1868.80;;;;;;4898730;29;20054;-58
2021/11/15 02:21:25;;;;;;;88.13;55.28;;;230.40;1920.00;;;;;;4898472;29;20539;-57
2021/11/15 02:23:52;;;;;;;94.93;56.65;;;230.40;1920.00;;;;;;4899040;29;20035;-58
2021/11/15 02:26:21;;;;;;;82.68;52.78;;;230.40;1920.00;;;;;;4898518;29;20076;-58
2021/11/15 02:28:49;;;;;;;80.25;50.25;;;230.40;1920.00;;;;;;4898765;29;20060;-58
2021/11/15 02:31:20;;;;;;;87.47;52.83;;;230.40;1894.40;;;;;;4898263;29;20103;-58
2021/11/15 02:33:54;;;;;;;82.47;52.55;;;230.40;1920.00;;;;;;4898527;29;20336;-58
2021/11/15 02:36:21;;;;;;;79.38;50.63;;;230.40;1920.00;;;;;;4881594;29;20040;-57
2021/11/15 02:38:48;;;;;;;80.93;50.65;;;230.40;1894.40;;;;;;4898880;29;20036;-58
2021/11/15 02:41:17;;;;;;;75.32;47.25;;;230.40;1920.00;;;;;;4898298;29;20075;-58
2021/11/15 02:43:43;;;;;;;79.85;49.83;;;230.40;1894.40;;;;;;4898194;29;20084;-57
2021/11/15 02:46:10;;;;;;;76.20;48.90;;;230.40;1894.40;;;;;;4898218;29;20020;-58
2021/11/15 02:48:35;;;;;;;77.20;48.85;;;230.40;1894.40;;;;;;4898330;29;20108;-58
2021/11/15 02:51:01;;;;;;;79.65;47.70;;;230.40;1894.40;;;;;;4898300;29;20103;-58
2021/11/15 02:53:27;;;;;;;81.60;47.70;;;230.40;1894.40;;;;;;4898240;29;20028;-58
2021/11/15 02:55:53;;;;;;;76.88;47.47;;;230.40;1894.40;;;;;;4898265;29;20025;-58
2021/11/15 02:58:19;;;;;;;71.95;45.42;;;230.40;1894.40;;;;;;4897585;29;20084;-57
2021/11/15 03:00:52;;;;;;;73.93;46.50;;;230.40;1894.40;;;;;;4898059;29;20032;-58
2021/11/15 03:03:19;;;;;;;77.32;46.20;;;230.40;1868.80;;;;;;4898104;29;20483;-57
2021/11/15 03:05:48;;;;;;;72.28;44.90;;;230.40;1894.40;;;;;;4898275;29;20040;-58
2021/11/15 03:08:16;;;;;;;74.85;46.53;;;230.40;1868.80;;;;;;4898203;29;20424;-58
2021/11/15 03:10:44;;;;;;;75.47;45.92;;;230.40;1868.80;;;;;;4899934;29;20025;-58
2021/11/15 03:13:12;;;;;;;71.75;45.95;;;205.70;1894.40;;;;;;4901800;29;20111;-58
2021/11/15 03:15:44;;;;;;;79.72;46.17;;;205.70;1868.80;;;;;;4901698;29;20031;-58
2021/11/15 03:18:20;;;;;;;77.68;47.65;;;205.60;1894.40;;;;;;4901490;29;20037;-58
2021/11/15 03:20:56;;;;;;;77.90;48.42;;;205.70;1868.80;;;;;;4901225;29;20111;-58
2021/11/15 03:23:25;;;;;;;74.43;47.10;;;205.60;1868.80;;;;;;4901557;29;20040;-58
2021/11/15 03:25:52;;;;;;;79.38;49.58;;;205.70;1868.80;;;;;;4901209;29;20029;-58
2021/11/15 03:28:20;;;;;;;85.97;50.88;;;205.60;1868.80;;;;;;4901312;29;20039;-57
2021/11/15 03:30:51;;;;;;;85.88;50.60;;;205.60;1868.80;;;;;;4901446;29;20427;-57
2021/11/15 03:33:17;;;;;;;79.15;49.72;;;205.70;1868.80;;;;;;4901463;29;20483;-57
2021/11/15 03:35:43;;;;;;;82.05;51.47;;;205.70;1843.20;;;;;;4884442;29;20045;-57
2021/11/15 03:38:08;;;;;;;87.75;51.92;;;205.60;1868.80;;;;;;4884400;29;20418;-58
2021/11/15 03:40:35;;;;;;;85.75;51.08;;;205.60;1843.20;;;;;;4901244;29;20029;-58
2021/11/15 03:43:03;;;;;;;77.80;48.83;;;205.60;1843.20;;;;;;4900790;29;20036;-58
2021/11/15 03:45:30;;;;;;;78.75;48.35;;;205.60;1868.80;;;;;;4901210;29;20023;-58
2021/11/15 03:47:57;;;;;;;78.40;48.50;;;205.60;1868.80;;;;;;4901037;29;20033;-58
2021/11/15 03:50:24;;;;;;;77.95;48.90;;;205.60;1843.20;;;;;;4901088;29;20060;-58
2021/11/15 03:52:50;;;;;;;83.28;48.28;;;205.60;1868.80;;;;;;4900437;29;20032;-58
2021/11/15 03:55:18;;;;;;;78.28;47.22;;;205.60;1843.20;;;;;;4901020;29;20024;-58
2021/11/15 03:57:45;;;;;;;76.60;46.53;;;205.60;1843.20;;;;;;4884064;29;20044;-58
2021/11/15 04:00:14;;;;;;;83.47;47.97;;;205.70;1843.20;;;;;;4900863;29;20072;-58
2021/11/15 04:02:40;;;;;;;91.00;49.63;;;205.70;1868.80;;;;;;4900803;29;20040;-58
2021/11/15 04:05:09;;;;;;;82.97;49.05;;;205.60;1868.80;;;;;;4900891;29;20035;-58
2021/11/15 04:07:39;;;;;;;92.00;51.05;;;205.70;1894.40;;;;;;4900835;29;20021;-58
2021/11/15 04:10:21;;;;;;;81.00;49.70;;;205.60;1894.40;;;;;;4900595;29;20025;-58
2021/11/15 04:12:47;;;;;;;78.90;48.17;;;205.40;1894.40;;;;;;4900829;29;20555;-58
2021/11/15 04:15:13;;;;;;;83.35;47.97;;;205.40;1894.40;;;;;;4900346;29;20471;-58
2021/11/15 04:17:42;;;;;;;77.07;47.85;;;205.60;1868.80;;;;;;4900692;29;20100;-58
2021/11/15 04:20:10;;;;;;;82.55;49.13;;;205.60;1868.80;;;;;;4883511;29;20048;-58
2021/11/15 04:22:36;;;;;;;82.32;51.10;;;205.60;1868.80;;;;;;4899200;29;20052;-58
2021/11/15 04:25:04;;;;;;;85.20;48.78;;;205.60;1868.80;;;;;;4900472;29;20036;-58
2021/11/15 04:27:30;;;;;;;79.60;47.20;;;205.70;1868.80;;;;;;4900167;29;20036;-58
2021/11/15 04:29:56;;;;;;;76.50;47.05;;;205.50;1894.40;;;;;;4883358;29;20128;-58
2021/11/15 04:32:21;;;;;;;77.95;46.60;;;205.40;1920.00;;;;;;4900239;29;20535;-58
2021/11/15 04:34:47;;;;;;;75.95;46.15;;;205.40;1920.00;;;;;;4900267;29;20029;-58
2021/11/15 04:37:13;;;;;;;81.57;47.72;;;205.40;1920.00;;;;;;4900251;29;20383;-58
2021/11/15 04:39:38;;;;;;;78.63;47.38;;;205.40;1920.00;;;;;;4900411;29;20028;-58
2021/11/15 04:42:04;;;;;;;80.07;46.33;;;205.40;1894.40;;;;;;4899997;29;20088;-58
2021/11/15 04:44:30;;;;;;;79.88;46.67;;;205.60;1894.40;;;;;;4900113;29;20036;-58
2021/11/15 04:46:56;;;;;;;79.47;45.28;;;205.70;1868.80;;;;;;4900044;29;20038;-57
2021/11/15 04:49:22;;;;;;;81.60;46.67;;;230.40;1868.80;;;;;;4899988;29;20112;-58
2021/11/15 04:51:48;;;;;;;76.82;46.10;;;230.40;1843.20;;;;;;4899993;29;20028;-58
2021/11/15 04:54:14;;;;;;;90.35;52.08;;;230.40;1843.20;;;;;;4882923;29;20040;-58
2021/11/15 04:56:41;;;;;;;92.35;53.65;;;230.40;1843.20;;;;;;4882819;29;20040;-58
2021/11/15 04:59:07;;;;;;;91.97;52.67;;;230.40;1817.60;;;;;;4899801;29;20051;-58
2021/11/15 05:01:33;;;;;;;95.88;54.03;;;230.40;1817.60;;;;;;4899630;29;20064;-60
2021/11/15 05:03:59;;;;;;;96.45;53.33;;;230.40;1817.60;;;;;;4899723;29;20034;-60
2021/11/15 05:06:25;;;;;;;97.45;51.83;;;230.40;1817.60;;;;;;4900020;29;20111;-58
2021/11/15 05:08:51;;;;;;;94.40;49.15;;;230.40;1817.60;;;;;;4899536;29;20025;-58
2021/11/15 05:11:17;;;;;;;87.47;49.50;;;230.40;1817.60;;;;;;4899357;29;20076;-58
2021/11/15 05:13:42;;;;;;;88.35;49.92;;;230.40;1817.60;;;;;;4899609;29;20029;-58
2021/11/15 05:16:08;;;;;;;105.13;53.10;;;230.40;1817.60;;;;;;4899447;29;20125;-58
2021/11/15 05:18:34;;;;;;;98.50;52.85;;;230.40;1792.00;;;;;;4899199;29;20031;-58
2021/11/15 05:20:59;;;;;;;108.07;55.65;;;230.40;1817.60;;;;;;4899179;29;20063;-58
2021/11/15 05:23:27;;;;;;;101.75;53.72;;;230.40;1792.00;;;;;;4898841;29;20036;-58
2021/11/15 05:25:53;;;;;;;97.22;51.15;;;230.40;1792.00;;;;;;4898971;29;20463;-58
2021/11/15 05:28:19;;;;;;;98.50;54.92;;;230.40;1792.00;;;;;;4899186;29;20056;-58
2021/11/15 05:30:46;;;;;;;99.65;56.13;;;230.40;1792.00;;;;;;4899267;29;20443;-58
2021/11/15 05:33:11;;;;;;;104.32;56.22;;;230.40;1792.00;;;;;;4898614;29;20029;-58
2021/11/15 05:35:37;;;;;;;103.43;55.42;;;205.70;1792.00;;;;;;4899351;29;20486;-58
2021/11/15 05:38:03;;;;;;;98.47;54.65;;;205.70;1792.00;;;;;;4898924;29;20029;-58
2021/11/15 05:40:29;;;;;;;97.68;54.47;;;205.70;1817.60;;;;;;4899112;29;20035;-58
2021/11/15 05:42:56;;;;;;;96.05;53.15;;;205.70;1792.00;;;;;;4898999;29;20036;-58
2021/11/15 05:45:24;;;;;;;101.68;52.70;;;205.60;1817.60;;;;;;4899224;29;20095;-58
2021/11/15 05:47:49;;;;;;;92.35;48.58;;;205.70;1792.00;;;;;;4899209;29;20120;-58
2021/11/15 05:50:17;;;;;;;90.88;49.72;;;205.60;1817.60;;;;;;4898974;29;20104;-58
2021/11/15 05:52:43;;;;;;;90.55;49.40;;;205.60;1817.60;;;;;;4899084;29;20025;-58
2021/11/15 05:55:14;;;;;;;90.60;50.20;;;205.60;1817.60;;;;;;4898797;29;20039;-58
2021/11/15 05:57:40;;;;;;;87.88;49.38;;;205.50;1843.20;;;;;;4899049;29;20056;-58
2021/11/15 06:00:10;;;;;;;86.32;48.72;;;205.50;1817.60;;;;;;4898787;29;20033;-58
2021/11/15 06:02:36;;;;;;;88.93;48.40;;;205.50;1843.20;;;;;;4898649;29;20040;-58
2021/11/15 06:05:02;;;;;;;74.95;44.83;;;205.50;1843.20;;;;;;4898266;29;20027;-58
2021/11/15 06:07:28;;;;;;;81.75;46.65;;;205.50;1843.20;;;;;;4899023;29;20032;-58
2021/11/15 06:09:54;;;;;;;74.25;45.58;;;205.50;1843.20;;;;;;4898111;29;20021;-58
2021/11/15 06:12:19;;;;;;;81.18;46.78;;;205.50;1843.20;;;;;;4898964;29;20494;-58
2021/11/15 06:14:45;;;;;;;93.47;50.55;;;205.50;1843.20;;;;;;4898560;29;20021;-58
2021/11/15 06:17:11;;;;;;;105.00;55.58;;;205.50;1843.20;;;;;;4898760;29;20031;-58
2021/11/15 06:19:36;;;;;;;94.57;52.92;;;205.50;1868.80;;;;;;4898535;29;20543;-58
2021/11/15 06:22:02;;;;;;;85.18;50.13;;;205.30;1868.80;;;;;;4898210;29;20558;-57
2021/11/15 06:24:28;;;;;;;80.18;47.65;;;205.20;1894.40;;;;;;4897963;29;20032;-58
2021/11/15 06:26:54;;;;;;;76.82;46.58;;;205.10;1920.00;;;;;;4898327;29;20432;-58
2021/11/15 06:29:20;;;;;;;69.00;42.38;;;205.10;1920.00;;;;;;4881723;29;20036;-58
2021/11/15 06:31:46;;;;;;;64.25;39.10;;;205.00;1920.00;;;;;;4881487;29;20387;-58
2021/11/15 06:34:12;;;;;;;68.28;41.22;;;205.00;1920.00;;;;;;4898804;29;20029;-58
2021/11/15 06:36:37;;;;;;;59.88;40.05;;;204.90;1920.00;;;;;;4897975;29;20033;-58
2021/11/15 06:39:04;;;;;;;63.97;39.78;;;205.00;1920.00;;;;;;4898262;29;20025;-58
2021/11/15 06:41:30;;;;;;;67.88;40.13;;;205.00;1920.00;;;;;;4898504;29;20036;-58
2021/11/15 06:43:56;;;;;;;56.83;37.95;;;205.10;1920.00;;;;;;4899374;29;20360;-58
2021/11/15 06:46:22;;;;;;;53.88;35.58;;;204.90;1920.00;;;;;;4902226;29;20033;-58
2021/11/15 06:48:48;;;;;;;50.83;34.38;;;205.00;1945.60;;;;;;4902302;29;20033;-58
2021/11/15 06:51:14;;;;;;;49.95;34.95;;;205.00;1920.00;;;;;;4902156;29;20055;-58
2021/11/15 06:53:42;;;;;;;53.20;34.05;;;204.90;1945.60;;;;;;4902065;29;20459;-58
2021/11/15 06:56:09;;;;;;;50.80;34.95;;;204.90;1945.60;;;;;;4885363;29;20360;-58
2021/11/15 06:58:35;;;;;;;55.15;37.58;;;204.90;1945.60;;;;;;4902107;29;20025;-58
2021/11/15 07:01:02;;;;;;;59.30;35.65;;;204.90;1920.00;;;;;;4901724;29;20119;-58
2021/11/15 07:03:28;;;;;;;154.25;79.82;;;205.00;1920.00;;;;;;4901924;29;20025;-58
2021/11/15 07:05:54;;;;;;;177.25;91.32;;;205.00;1920.00;;;;;;4901919;29;20068;-58
2021/11/15 07:08:20;;;;;;;194.10;97.90;;;205.00;1894.40;;;;;;4901922;29;20036;-58
2021/11/15 07:10:46;;;;;;;141.65;73.22;;;205.00;1920.00;;;;;;4901651;29;20490;-58
2021/11/15 07:13:15;;;;;;;118.95;62.30;;;204.80;1920.00;;;;;;4901603;29;20028;-58
2021/11/15 07:15:42;;;;;;;100.13;58.28;;;204.80;1920.00;;;;;;4884560;29;20032;-58
2021/11/15 07:18:08;;;;;;;91.07;53.40;;;204.90;1920.00;;;;;;4901279;29;20032;-57
2021/11/15 07:20:35;;;;;;;70.22;42.75;;;204.90;1920.00;;;;;;4884580;29;20032;-58
2021/11/15 07:23:01;;;;;;;60.72;38.22;;;204.90;1945.60;;;;;;4900643;29;20128;-57
2021/11/15 07:25:27;;;;;;;50.10;32.15;;;204.80;1945.60;;;;;;4901294;29;20479;-57
2021/11/15 07:27:54;;;;;;;40.35;29.75;;;204.80;1945.60;;;;;;4901186;29;20081;-58
2021/11/15 07:30:21;;;;;;;40.85;28.95;;;204.80;1945.60;;;;;;4883621;29;20455;-58
2021/11/15 07:32:47;;;;;;;37.83;26.92;;;204.80;1945.60;;;;;;4899610;29;20035;-58
2021/11/15 07:35:13;;;;;;;33.85;27.38;;;180.10;1920.00;;;;;;4899325;29;20410;-58
2021/11/15 07:37:39;;;;;;;40.38;28.38;;;180.10;1920.00;;;;;;4899226;29;20446;-57
2021/11/15 07:40:07;;;;;;;44.65;32.05;;;180.10;1945.60;;;;;;4899665;29;20028;-58
2021/11/15 07:42:34;;;;;;;43.90;30.60;;;180.10;1945.60;;;;;;4900847;29;20040;-58
2021/11/15 07:44:59;;;;;;;55.97;35.00;;;204.90;1920.00;;;;;;4900979;29;20104;-58
2021/11/15 07:47:25;;;;;;;52.85;34.38;;;204.90;1920.00;;;;;;4900874;29;20112;-58
2021/11/15 07:49:52;;;;;;;59.13;37.75;;;205.10;1920.00;;;;;;4900993;29;20072;-59
2021/11/15 07:52:18;;;;;;;56.90;37.15;;;205.10;1894.40;;;;;;4901085;29;20028;-60
2021/11/15 07:54:46;;;;;;;56.35;37.40;;;205.00;1920.00;;;;;;4900905;29;20531;-58
2021/11/15 07:57:12;;;;;;;61.47;39.78;;;205.00;1945.60;;;;;;4898400;29;20048;-57
2021/11/15 07:59:38;;;;;;;58.78;37.00;;;205.00;1945.60;;;;;;4899056;29;20037;-57
2021/11/15 08:02:05;;;;;;;64.65;41.58;;;205.00;1945.60;;;;;;4899014;29;20056;-57
2021/11/15 08:04:32;;;;;;;68.25;43.70;;;204.90;1945.60;;;;;;4898809;29;20479;-58
2021/11/15 08:06:58;;;;;;;72.25;47.78;;;204.90;1945.60;;;;;;4898933;29;20045;-57
2021/11/15 08:09:25;;;;;;;74.28;49.38;;;205.00;1945.60;;;;;;4882406;29;20028;-57
2021/11/15 08:11:55;;;;;;;73.97;47.78;;;205.00;1971.20;;;;;;4898847;29;20099;-58
2021/11/15 08:14:21;;;;;;;65.25;43.35;;;205.10;1945.60;;;;;;4898673;29;20036;-57
2021/11/15 08:16:47;;;;;;;73.28;45.90;;;205.20;1920.00;;;;;;4898885;29;20029;-58
2021/11/15 08:19:14;;;;;;;63.33;43.60;;;205.30;1920.00;;;;;;4898739;29;20028;-57
2021/11/15 08:21:40;;;;;;;71.68;42.95;;;205.40;1920.00;;;;;;4881498;29;20052;-58
2021/11/15 08:24:18;;;;;;;69.80;42.67;;;205.40;1920.00;;;;;;4898406;29;20588;-57
2021/11/15 08:26:56;;;;;;;65.50;40.92;;;205.30;1920.00;;;;;;4897401;29;20032;-57
2021/11/15 08:29:25;;;;;;;72.80;47.15;;;205.30;1945.60;;;;;;4896913;29;20017;-57
2021/11/15 08:31:53;;;;;;;80.53;49.58;;;205.30;1945.60;;;;;;4898236;29;20068;-58
2021/11/15 08:34:19;;;;;;;83.70;50.63;;;205.40;1971.20;;;;;;4881316;29;20379;-58
2021/11/15 08:36:46;;;;;;;76.20;47.95;;;205.30;1971.20;;;;;;4898338;29;20505;-57
2021/11/15 08:39:18;;;;;;;75.18;49.13;;;205.40;1996.80;;;;;;4898346;29;20471;-57
2021/11/15 08:41:47;;;;;;;80.10;51.55;;;205.50;1996.80;;;;;;4898322;29;20447;-57
2021/11/15 08:44:16;;;;;;;73.30;50.58;;;205.50;1996.80;;;;;;4898670;29;20021;-57
2021/11/15 08:46:45;;;;;;;81.43;50.10;;;205.60;2022.40;;;;;;4898329;29;20025;-57
2021/11/15 08:49:12;;;;;;;75.68;49.85;;;205.60;2022.40;;;;;;4899104;29;20024;-58
2021/11/15 08:51:39;;;;;;;77.63;51.08;;;205.60;2022.40;;;;;;4899222;29;20115;-58
2021/11/15 08:54:08;;;;;;;66.93;45.30;;;205.60;2022.40;;;;;;4899060;29;20503;-58
2021/11/15 08:56:35;;;;;;;68.28;45.72;;;205.70;2022.40;;;;;;4898717;29;20028;-58
2021/11/15 08:59:00;;;;;;;67.25;47.22;;;230.40;2022.40;;;;;;4899732;29;20032;-59
2021/11/15 09:01:27;;;;;;;73.85;48.58;;;230.40;2022.40;;;;;;4897626;29;20552;-57
2021/11/15 09:03:54;;;;;;;68.50;45.78;;;230.50;2022.40;;;;;;4898955;29;20028;-58
2021/11/15 09:06:20;;;;;;;64.65;43.53;;;230.60;2022.40;;;;;;4899044;29;20025;-57
2021/11/15 09:08:47;;;;;;;63.35;41.80;;;230.70;1996.80;;;;;;4898414;29;20027;-58
2021/11/15 09:11:13;;;;;;;69.40;44.15;;;230.70;1996.80;;;;;;4898694;29;20036;-58
2021/11/15 09:13:41;;;;;;;66.38;47.22;;;230.80;2022.40;;;;;;4899897;29;20053;-58
2021/11/15 09:16:08;;;;;;;72.82;47.50;;;230.90;1996.80;;;;;;4880800;29;20040;-58
2021/11/15 09:18:35;;;;;;;68.43;47.10;;;231.00;2022.40;;;;;;4897287;29;20100;-58
2021/11/15 09:21:08;;;;;;;69.95;46.10;;;231.00;2048.00;;;;;;4897622;29;20037;-58
2021/11/15 09:23:41;;;;;;;62.47;44.50;;;231.10;2022.40;;;;;;4898685;29;20064;-58
2021/11/15 09:26:09;;;;;;;62.65;42.83;;;231.30;2022.40;;;;;;4896995;29;20064;-58
2021/11/15 09:28:36;;;;;;;57.30;40.42;;;231.30;2048.00;;;;;;4898471;29;20387;-58
2021/11/15 09:31:02;;;;;;;55.80;38.22;;;256.10;1971.20;;;;;;4898418;29;20080;-58
2021/11/15 09:33:28;;;;;;;59.28;39.92;;;256.10;1996.80;;;;;;4898706;29;20049;-58
2021/11/15 09:35:55;;;;;;;62.97;40.05;;;256.20;1996.80;;;;;;4897353;29;20029;-57
2021/11/15 09:38:22;;;;;;;57.90;38.50;;;256.30;1996.80;;;;;;4899301;29;20479;-58
2021/11/15 09:40:57;;;;;;;59.83;40.08;;;256.40;1971.20;;;;;;4898573;29;20024;-58
2021/11/15 09:43:34;;;;;;;62.67;42.53;;;256.50;1945.60;;;;;;4898529;29;20040;-58
2021/11/15 09:46:06;;;;;;;63.97;40.67;;;256.60;1945.60;;;;;;4898621;29;20408;-58
2021/11/15 09:48:33;;;;;;;60.45;41.08;;;256.70;1945.60;;;;;;4898110;29;20031;-58
2021/11/15 09:51:01;;;;;;;62.33;40.00;;;256.80;1971.20;;;;;;4898821;29;20033;-59
2021/11/15 09:53:28;;;;;;;74.53;42.58;;;256.90;1971.20;;;;;;4898053;29;20061;-58
2021/11/15 09:55:54;;;;;;;66.15;41.15;;;281.60;1996.80;;;;;;4898207;29;20103;-58
2021/11/15 09:58:20;;;;;;;67.05;42.55;;;281.70;1996.80;;;;;;4898800;29;20547;-59
2021/11/15 10:00:46;;;;;;;63.63;40.97;;;281.80;1971.20;;;;;;4898922;29;20032;-59
2021/11/15 10:03:12;;;;;;;59.95;39.45;;;281.90;1971.20;;;;;;4898181;29;20040;-58
2021/11/15 10:05:40;;;;;;;56.80;38.45;;;282.00;1971.20;;;;;;4898971;29;20423;-58
2021/11/15 10:08:10;;;;;;;59.25;39.67;;;282.10;1971.20;;;;;;4898521;29;20410;-58
2021/11/15 10:10:44;;;;;;;57.67;35.83;;;282.20;1971.20;;;;;;4897953;29;20060;-59
2021/11/15 10:13:18;;;;;;;;;;;282.30;1945.60;;;;;;4898272;29;20031;-59
2021/11/15 10:15:54;;;;;;;53.45;36.33;;;282.30;1945.60;;;;;;4898400;29;20011;-58
2021/11/15 10:18:43;;;;;;;55.90;37.15;;;282.40;1945.60;;;;;;4898501;29;20040;-57
2021/11/15 10:21:17;;;;;;;56.03;36.55;;;282.50;1945.60;;;;;;4898177;29;20068;-58
2021/11/15 10:23:51;;;;;;;56.00;36.60;;;307.20;1971.20;;;;;;4898613;29;20112;-58
2021/11/15 10:26:26;;;;;;;49.75;31.23;;;307.20;1971.20;;;;;;4896000;29;20375;-58
2021/11/15 10:29:00;;;;;;;48.17;32.08;;;307.40;1945.60;;;;;;4879795;29;20132;-58
2021/11/15 10:31:36;;;;;;;49.13;31.42;;;307.50;1945.60;;;;;;4880830;29;20427;-58
2021/11/15 10:34:11;;;;;;;51.42;34.50;;;307.60;1945.60;;;;;;4897563;29;20120;-59
2021/11/15 10:36:53;;;;;;;43.20;28.63;;;307.70;1920.00;;;;;;4898261;29;20123;-60
2021/11/15 10:39:22;;;;;;;47.30;29.55;;;307.90;1920.00;;;;;;4898400;29;20372;-60
2021/11/15 10:42:18;;;;;;;37.65;26.25;;;307.90;1894.40;;;;;;4898160;29;20040;-59
2021/11/15 10:45:13;;;;;;;45.75;29.77;;;308.10;1868.80;;;;;;4890345;29;20506;-60
2021/11/15 10:47:42;;;;;;;40.22;27.58;;;308.10;1843.20;;;;;;4840398;29;20061;-60
2021/11/15 10:50:29;;;;;;;37.22;26.20;;;332.80;1894.40;;;;;;4840148;29;20038;-60
2021/11/15 10:53:08;;;;;;;35.35;24.55;;;332.90;1843.20;;;;;;4824317;29;20042;-59
2021/11/15 10:56:05;;;;;;;30.50;22.25;;;333.00;1843.20;;;;;;4840198;29;20041;-60
2021/11/15 10:58:39;;;;;;;32.33;20.83;;;333.20;1817.60;;;;;;4784217;30;20570;-61
2021/11/15 11:01:05;;;;;;;34.50;22.50;;;333.30;1817.60;;;;;;4784297;30;20108;-60
2021/11/15 11:03:32;;;;;;;33.33;22.95;;;333.30;1817.60;;;;;;4784247;30;20047;-60
2021/11/15 11:06:04;;;;;;;37.85;22.73;;;333.30;1792.00;;;;;;4776481;30;20502;-60
2021/11/15 11:08:48;;;;;;;34.13;22.17;;;333.30;1792.00;;;;;;4783473;30;20100;-60
2021/11/15 11:11:28;;;;;;;36.58;23.85;;;333.40;1792.00;;;;;;4777660;30;20040;-60
2021/11/15 11:14:06;;;;;;;40.15;23.83;;;333.50;1792.00;;;;;;4781914;30;20055;-60
2021/11/15 11:16:47;;;;;;;23.42;17.90;;;333.50;1792.00;;;;;;4776498;30;20111;-60
2021/11/15 11:21:57;;;;;;;34.35;18.75;;;333.70;1766.40;;;;;;4775527;30;20424;-60
2021/11/15 11:27:13;;;;;;;32.88;18.23;;;358.40;1740.80;;;;;;4848198;29;20070;-60
2021/11/15 11:29:45;;;;;;;34.25;18.08;;;358.50;1715.20;;;;;;4847482;29;20549;-60
2021/11/15 11:32:14;;;;;;;36.05;17.92;;;358.60;1715.20;;;;;;4849169;29;20388;-60
2021/11/15 11:34:42;;;;;;;29.05;17.65;;;358.60;1715.20;;;;;;4860312;29;20037;-60
2021/11/15 11:37:13;;;;;;;24.95;17.30;;;358.70;1715.20;;;;;;4899131;29;20371;-61
2021/11/15 11:39:41;;;;;;;29.02;17.33;;;358.70;1689.60;;;;;;4897381;29;20024;-60
2021/11/15 11:42:07;;;;;;;28.35;17.23;;;358.80;1689.60;;;;;;4899470;29;20061;-59
2021/11/15 11:44:35;;;;;;;23.58;15.85;;;358.80;1664.00;;;;;;4899859;29;20100;-61
2021/11/15 11:47:05;;;;;;;26.35;15.18;;;358.90;1664.00;;;;;;4899471;29;20025;-59
2021/11/15 11:49:32;;;;;;;29.63;17.95;;;359.00;1664.00;;;;;;4882947;29;20479;-60
2021/11/15 11:52:02;;;;;;;26.80;16.63;;;359.00;1664.00;;;;;;4899680;29;20029;-60
2021/11/15 11:54:41;;;;;;;26.73;17.02;;;359.10;1638.40;;;;;;4897206;29;20028;-60
2021/11/15 11:57:22;;;;;;;24.17;15.32;;;359.10;1638.40;;;;;;4897032;29;20031;-61
2021/11/15 11:59:51;;;;;;;23.52;14.10;;;359.10;1612.80;;;;;;4896742;29;20510;-60
2021/11/15 12:02:22;;;;;;;22.20;14.00;;;359.10;1612.80;;;;;;4896657;29;20448;-60
2021/11/15 12:04:49;;;;;;;20.65;14.38;;;359.10;1612.80;;;;;;4899238;29;20467;-60
2021/11/15 12:07:30;;;;;;;24.20;15.68;;;359.20;1612.80;;;;;;4899118;29;20048;-60
2021/11/15 12:10:02;;;;;;;20.40;14.98;;;359.20;1638.40;;;;;;4898646;29;20036;-60